Time;durP1;ratioP1;P1;durP2;ratioP2;P2;SDS_P1;SDS_P2;PMS_P1;PMS_P2;Temp;Humidity;BMP_temperature;BMP_pressure;BME280_temperature;BME280_humidity;BME280_pressure;Samples;Min_cycle;Max_cycle;Signal;HPM_P1;HPM_P2
2021/09/24 00:01:32;;;;;;;3.80;3.20;;;;;;;8.76;71.33;99745.90;1723273;82;25047;-57
2021/09/24 00:03:59;;;;;;;4.22;3.22;;;;;;;8.64;71.58;99735.63;1729436;82;20927;-57
2021/09/24 00:06:26;;;;;;;5.70;3.40;;;;;;;8.54;71.88;99738.28;1741283;82;21470;-57
2021/09/24 00:08:54;;;;;;;4.55;3.33;;;;;;;8.48;72.14;99737.84;1730094;82;21006;-57
2021/09/24 00:11:23;;;;;;;4.78;3.50;;;;;;;8.42;72.28;99727.47;1729872;82;20967;-58
2021/09/24 00:13:52;;;;;;;5.17;3.85;;;;;;;8.34;72.42;99722.92;1727033;82;21540;-59
2021/09/24 00:16:19;;;;;;;6.45;3.90;;;;;;;8.27;72.69;99719.49;1680961;85;21015;-58
2021/09/24 00:18:46;;;;;;;8.10;5.12;;;;;;;8.21;72.93;99714.50;1729610;82;20983;-58
2021/09/24 00:21:15;;;;;;;6.35;4.30;;;;;;;8.16;73.17;99714.36;1735876;82;27938;-58
2021/09/24 00:23:44;;;;;;;6.95;4.33;;;;;;;8.11;73.38;99709.64;1726763;82;21026;-58
2021/09/24 00:26:12;;;;;;;12.05;4.22;;;;;;;8.10;73.49;99708.53;1736133;82;20908;-58
2021/09/24 00:28:40;;;;;;;5.40;3.90;;;;;;;8.11;73.60;99707.50;1694629;83;21023;-58
2021/09/24 00:31:08;;;;;;;7.40;4.15;;;;;;;8.10;73.60;99709.86;1716109;82;20998;-57
2021/09/24 00:33:35;;;;;;;8.50;4.25;;;;;;;8.07;73.58;99711.95;1726545;82;21022;-58
2021/09/24 00:36:03;;;;;;;5.15;4.50;;;;;;;8.03;73.62;99703.26;1727989;82;21003;-58
2021/09/24 00:38:32;;;;;;;;;;;;;;;7.97;73.70;99700.94;1700019;82;21029;-58
2021/09/24 00:40:58;;;;;;;5.92;4.40;;;;;;;7.91;73.86;99696.47;1697622;82;20146;-57
2021/09/24 00:43:26;;;;;;;8.55;4.40;;;;;;;7.83;74.02;99694.89;1719775;82;20995;-57
2021/09/24 00:45:53;;;;;;;10.20;4.90;;;;;;;7.77;74.22;99690.39;1723983;82;21017;-57
2021/09/24 00:48:21;;;;;;;9.18;5.65;;;;;;;7.72;74.31;99684.91;1706725;81;20958;-56
2021/09/24 00:50:48;;;;;;;6.67;4.58;;;;;;;7.66;74.46;99679.91;1729234;81;21211;-57
2021/09/24 00:53:16;;;;;;;8.70;5.33;;;;;;;7.61;74.56;99673.58;1736470;81;21034;-57
2021/09/24 00:55:45;;;;;;;;;;;;;;;7.60;74.70;99667.44;1704939;83;21492;-56
2021/09/24 00:58:12;;;;;;;7.80;4.75;;;;;;;7.61;74.77;99654.91;1715607;82;20155;-57
2021/09/24 01:00:39;;;;;;;6.55;4.80;;;;;;;7.59;74.91;99651.13;1729664;81;20962;-58
2021/09/24 01:03:07;;;;;;;7.40;4.90;;;;;;;7.57;75.01;99645.70;1730839;81;21120;-60
2021/09/24 01:05:34;;;;;;;8.35;5.22;;;;;;;7.57;75.03;99653.20;1734113;81;20946;-59
2021/09/24 01:08:03;;;;;;;8.18;4.37;;;;;;;7.57;75.11;99639.02;1691737;81;20990;-59
2021/09/24 01:10:32;;;;;;;10.43;4.50;;;;;;;7.56;75.22;99648.08;1729104;81;21572;-59
2021/09/24 01:12:59;;;;;;;10.63;6.07;;;;;;;7.55;75.28;99651.25;1728554;81;21469;-59
2021/09/24 01:15:28;;;;;;;13.00;4.92;;;;;;;7.54;75.36;99643.77;1680276;81;21001;-59
2021/09/24 01:17:55;;;;;;;16.30;4.85;;;;;;;7.54;75.44;99637.63;1734444;81;20954;-59
2021/09/24 01:20:24;;;;;;;8.90;4.90;;;;;;;7.51;75.51;99636.20;1736372;81;21045;-59
2021/09/24 01:22:51;;;;;;;6.80;4.95;;;;;;;7.48;75.61;99631.30;1733945;81;21002;-59
2021/09/24 01:25:22;;;;;;;6.95;4.87;;;;;;;7.45;75.72;99631.73;1729057;81;20990;-59
2021/09/24 01:27:51;;;;;;;9.43;5.03;;;;;;;7.43;75.86;99623.11;1738208;81;22299;-59
2021/09/24 01:30:18;;;;;;;7.08;5.12;;;;;;;7.45;75.95;99608.23;1727793;81;20943;-60
2021/09/24 01:32:47;;;;;;;8.53;5.53;;;;;;;7.45;75.99;99599.73;1736776;81;20942;-60
2021/09/24 01:35:15;;;;;;;7.87;5.03;;;;;;;7.47;76.01;99592.84;1736578;81;20903;-60
2021/09/24 01:37:42;;;;;;;7.53;5.15;;;;;;;7.45;76.01;99587.73;1729163;81;21095;-61
2021/09/24 01:40:13;;;;;;;12.07;4.83;;;;;;;7.44;76.06;99589.28;1736253;81;21076;-59
2021/09/24 01:42:41;;;;;;;7.40;5.17;;;;;;;7.43;76.11;99583.64;1734165;81;20971;-59
2021/09/24 01:45:09;;;;;;;8.50;5.35;;;;;;;7.39;76.11;99579.27;1735980;81;21017;-59
2021/09/24 01:47:36;;;;;;;6.92;4.87;;;;;;;7.37;76.21;99581.31;1734456;81;21449;-60
2021/09/24 01:50:05;;;;;;;8.57;5.60;;;;;;;7.37;76.20;99583.98;1721678;82;21512;-59
2021/09/24 01:52:34;;;;;;;8.10;5.67;;;;;;;7.35;76.24;99577.53;1716645;83;20943;-61
2021/09/24 01:55:01;;;;;;;8.35;5.15;;;;;;;7.36;76.23;99579.67;1714909;83;21003;-59
2021/09/24 01:57:29;;;;;;;7.78;5.08;;;;;;;7.35;76.25;99566.06;1716429;83;20946;-60
2021/09/24 01:59:56;;;;;;;10.10;4.78;;;;;;;7.34;76.21;99557.75;1716492;83;20986;-61
2021/09/24 02:02:23;;;;;;;6.78;4.65;;;;;;;7.33;76.25;99562.28;1716704;83;20959;-61
2021/09/24 02:04:50;;;;;;;7.92;5.12;;;;;;;7.36;76.22;99555.17;1716712;83;21172;-60
2021/09/24 02:07:17;;;;;;;7.33;5.28;;;;;;;7.40;76.12;99558.74;1716982;83;21520;-60
2021/09/24 02:09:44;;;;;;;8.95;5.25;;;;;;;7.37;76.12;99542.13;1672260;83;20986;-59
2021/09/24 02:12:11;;;;;;;8.75;5.35;;;;;;;7.37;76.11;99548.79;1714343;83;20970;-60
2021/09/24 02:14:38;;;;;;;6.95;4.92;;;;;;;7.39;76.17;99550.44;1716255;83;20935;-60
2021/09/24 02:17:07;;;;;;;6.85;4.62;;;;;;;7.39;76.13;99538.44;1716842;83;20947;-60
2021/09/24 02:19:36;;;;;;;6.62;5.17;;;;;;;7.40;76.18;99539.55;1715816;83;20990;-59
2021/09/24 02:22:04;;;;;;;7.70;5.28;;;;;;;7.42;76.19;99534.83;1717111;83;21009;-59
2021/09/24 02:24:32;;;;;;;7.28;5.17;;;;;;;7.45;76.22;99533.06;1716581;83;21046;-59
2021/09/24 02:26:59;;;;;;;10.58;5.60;;;;;;;7.51;76.14;99529.52;1717141;83;20927;-58
2021/09/24 02:29:28;;;;;;;11.12;5.87;;;;;;;7.54;76.04;99519.73;1717178;83;21516;-60
2021/09/24 02:31:55;;;;;;;10.80;5.58;;;;;;;7.57;75.98;99519.83;1715785;83;20990;-61
2021/09/24 02:34:24;;;;;;;8.43;5.37;;;;;;;7.60;76.01;99521.25;1720356;83;21037;-60
2021/09/24 02:36:52;;;;;;;12.95;5.53;;;;;;;7.63;75.87;99512.28;1716841;83;28683;-60
2021/09/24 02:39:19;;;;;;;14.13;5.85;;;;;;;7.66;75.75;99499.83;1695643;83;20907;-60
2021/09/24 02:41:48;;;;;;;11.83;5.55;;;;;;;7.66;75.69;99487.83;1695477;83;20848;-59
2021/09/24 02:44:15;;;;;;;9.88;5.90;;;;;;;7.63;75.71;99498.13;1715712;83;20979;-59
2021/09/24 02:46:42;;;;;;;11.35;6.30;;;;;;;7.64;75.77;99489.91;1716866;83;21029;-59
2021/09/24 02:49:09;;;;;;;8.65;5.50;;;;;;;7.66;75.75;99492.36;1692169;83;21034;-59
2021/09/24 02:51:36;;;;;;;11.57;7.05;;;;;;;7.70;75.67;99494.89;1682673;85;20950;-61
2021/09/24 02:54:05;;;;;;;12.07;6.12;;;;;;;7.71;75.60;99483.99;1682248;85;20962;-60
2021/09/24 02:56:32;;;;;;;12.37;6.72;;;;;;;7.72;75.58;99487.47;1660514;85;20989;-60
2021/09/24 02:58:59;;;;;;;15.25;7.08;;;;;;;7.72;75.61;99478.94;1682202;85;21488;-60
2021/09/24 03:01:27;;;;;;;11.12;6.53;;;;;;;7.73;75.56;99479.77;1682314;85;20955;-61
2021/09/24 03:03:54;;;;;;;11.70;6.65;;;;;;;7.78;75.59;99485.77;1660203;85;20958;-60
2021/09/24 03:06:21;;;;;;;15.15;6.67;;;;;;;7.83;75.51;99477.91;1682219;85;21138;-60
2021/09/24 03:08:50;;;;;;;16.12;6.40;;;;;;;7.88;75.41;99472.20;1682600;84;20990;-61
2021/09/24 03:11:17;;;;;;;12.58;6.62;;;;;;;7.93;75.25;99470.20;1661501;85;20934;-61
2021/09/24 03:13:46;;;;;;;20.25;7.60;;;;;;;7.95;75.11;99458.80;1661736;85;20970;-60
2021/09/24 03:16:19;;;;;;;12.37;6.70;;;;;;;7.98;75.01;99461.52;1679162;85;27355;-61
2021/09/24 03:18:48;;;;;;;14.98;7.12;;;;;;;8.02;75.02;99462.21;1682575;85;20986;-59
2021/09/24 03:21:15;;;;;;;16.27;6.85;;;;;;;8.09;74.85;99458.11;1682161;84;21046;-60
2021/09/24 03:23:44;;;;;;;13.13;6.87;;;;;;;8.17;74.72;99459.66;1682027;85;20962;-60
2021/09/24 03:26:12;;;;;;;17.17;6.07;;;;;;;8.24;74.57;99446.54;1674768;85;21524;-59
2021/09/24 03:28:39;;;;;;;10.08;5.72;;;;;;;8.32;74.41;99451.25;1681976;85;20974;-60
2021/09/24 03:31:07;;;;;;;12.28;7.20;;;;;;;8.38;74.07;99445.03;1682091;85;20978;-59
2021/09/24 03:33:36;;;;;;;16.35;7.67;;;;;;;8.40;73.83;99445.61;1686216;83;20946;-60
2021/09/24 03:36:04;;;;;;;15.25;6.25;;;;;;;8.39;73.71;99438.13;1692057;82;20994;-60
2021/09/24 03:38:31;;;;;;;13.23;6.47;;;;;;;8.37;73.53;99440.19;1692087;83;20959;-60
2021/09/24 03:40:58;;;;;;;14.43;6.62;;;;;;;8.34;73.55;99429.96;1699030;83;20883;-60
2021/09/24 03:43:25;;;;;;;16.97;5.85;;;;;;;8.32;73.61;99433.39;1701534;83;21132;-60
2021/09/24 03:45:52;;;;;;;16.55;6.75;;;;;;;8.34;73.59;99427.82;1696240;83;21038;-60
2021/09/24 03:48:19;;;;;;;16.52;7.25;;;;;;;8.36;73.60;99425.73;1697974;82;20935;-60
2021/09/24 03:50:46;;;;;;;10.10;5.97;;;;;;;8.37;73.57;99416.16;1732000;82;20939;-60
2021/09/24 03:53:13;;;;;;;19.00;6.67;;;;;;;8.38;73.56;99422.33;1735606;82;20975;-60
2021/09/24 03:55:42;;;;;;;15.70;6.47;;;;;;;8.41;73.56;99412.52;1730944;82;20851;-60
2021/09/24 03:58:09;;;;;;;20.27;7.00;;;;;;;8.40;73.56;99401.54;1736110;82;20931;-60
2021/09/24 04:00:37;;;;;;;14.33;6.53;;;;;;;8.35;73.64;99400.08;1732292;82;20939;-60
2021/09/24 04:03:04;;;;;;;15.58;6.92;;;;;;;8.28;73.87;99404.70;1727189;82;20986;-59
2021/09/24 04:05:33;;;;;;;16.30;6.55;;;;;;;8.23;74.01;99397.38;1710764;82;21076;-61
2021/09/24 04:08:01;;;;;;;13.68;6.65;;;;;;;8.22;74.18;99393.87;1733771;82;20895;-61
2021/09/24 04:10:29;;;;;;;10.65;6.15;;;;;;;8.21;74.25;99397.56;1729181;82;21014;-62
2021/09/24 04:12:56;;;;;;;14.25;7.17;;;;;;;8.21;74.39;99402.10;1681742;85;21578;-60
2021/09/24 04:15:25;;;;;;;8.83;5.83;;;;;;;8.20;74.44;99389.28;1738627;81;20983;-61
2021/09/24 04:17:52;;;;;;;10.30;6.37;;;;;;;8.17;74.48;99385.73;1736277;82;20943;-61
2021/09/24 04:20:20;;;;;;;11.28;6.37;;;;;;;8.18;74.64;99379.33;1719015;82;20880;-61
2021/09/24 04:22:47;;;;;;;14.95;7.22;;;;;;;8.20;74.67;99381.77;1725038;82;20982;-61
2021/09/24 04:25:16;;;;;;;16.67;7.42;;;;;;;8.24;74.69;99373.11;1697425;83;21011;-61
2021/09/24 04:27:43;;;;;;;15.15;7.70;;;;;;;8.24;74.67;99355.75;1722783;82;21046;-62
2021/09/24 04:30:10;;;;;;;16.17;7.42;;;;;;;8.25;74.67;99363.23;1728996;82;20884;-61
2021/09/24 04:32:38;;;;;;;11.00;7.35;;;;;;;8.24;74.76;99361.09;1727358;82;21749;-60
2021/09/24 04:35:06;;;;;;;15.75;8.00;;;;;;;8.28;74.78;99357.44;1719978;82;20987;-61
2021/09/24 04:37:35;;;;;;;13.35;6.70;;;;;;;8.34;74.83;99347.70;1725426;82;21029;-61
2021/09/24 04:40:02;;;;;;;11.33;6.75;;;;;;;8.39;74.83;99356.67;1719779;82;21006;-59
2021/09/24 04:42:28;;;;;;;13.62;7.50;;;;;;;8.48;74.77;99359.86;1680765;85;21025;-60
2021/09/24 04:44:55;;;;;;;12.63;7.58;;;;;;;8.55;74.61;99347.22;1686371;83;21791;-60
2021/09/24 04:47:23;;;;;;;11.55;7.30;;;;;;;8.58;74.51;99347.25;1724521;82;21033;-60
2021/09/24 04:49:50;;;;;;;16.70;7.65;;;;;;;8.62;74.52;99357.78;1724879;82;21327;-61
2021/09/24 04:52:21;;;;;;;13.00;7.60;;;;;;;8.68;74.43;99348.03;1698066;82;21072;-61
2021/09/24 04:54:48;;;;;;;10.75;6.90;;;;;;;8.70;74.37;99348.61;1719194;82;20939;-60
2021/09/24 04:57:17;;;;;;;;;;;;;;;8.72;74.38;99352.69;1732446;82;21584;-63
2021/09/24 04:59:44;;;;;;;12.47;7.47;;;;;;;8.74;74.37;99350.58;1730506;82;20160;-57
2021/09/24 05:02:14;;;;;;;12.75;7.03;;;;;;;8.77;74.47;99351.98;1712334;82;21450;-57
2021/09/24 05:04:43;;;;;;;13.30;7.80;;;;;;;8.81;74.53;99351.83;1728731;82;21098;-56
2021/09/24 05:07:10;;;;;;;13.40;7.62;;;;;;;8.84;74.63;99335.33;1727351;82;20999;-57
2021/09/24 05:09:39;;;;;;;14.30;7.95;;;;;;;8.88;74.61;99336.49;1723761;82;21438;-59
2021/09/24 05:12:07;;;;;;;11.40;7.42;;;;;;;8.91;74.63;99329.87;1722988;82;20943;-58
2021/09/24 05:14:34;;;;;;;14.07;7.80;;;;;;;8.93;74.68;99329.91;1724810;82;21026;-57
2021/09/24 05:17:01;;;;;;;16.70;8.08;;;;;;;8.96;74.79;99319.28;1726720;82;20924;-58
2021/09/24 05:19:28;;;;;;;12.93;7.22;;;;;;;8.98;74.80;99321.73;1725335;82;21011;-56
2021/09/24 05:21:55;;;;;;;13.25;7.83;;;;;;;8.98;74.82;99312.38;1725221;82;21154;-59
2021/09/24 05:24:24;;;;;;;12.28;7.95;;;;;;;9.01;74.97;99313.23;1720468;82;21002;-60
2021/09/24 05:26:52;;;;;;;;;;;;;;;8.99;74.95;99305.45;1724187;82;21441;-60
2021/09/24 05:29:21;;;;;;;14.35;6.87;;;;;;;8.99;75.11;99300.11;1716675;83;20152;-60
2021/09/24 05:31:49;;;;;;;11.12;7.10;;;;;;;8.93;75.30;99296.50;1716402;83;21061;-61
2021/09/24 05:34:17;;;;;;;14.58;7.50;;;;;;;8.94;75.58;99290.12;1715808;83;22574;-60
2021/09/24 05:36:44;;;;;;;13.53;7.03;;;;;;;8.93;75.71;99284.47;1695012;83;20912;-61
2021/09/24 05:39:12;;;;;;;12.43;8.13;;;;;;;8.89;76.00;99284.67;1720490;82;20918;-62
2021/09/24 05:41:41;;;;;;;;;;;;;;;8.85;76.08;99286.18;1690245;82;20951;-62
2021/09/24 05:44:08;;;;;;;15.13;8.30;;;;;;;8.80;76.42;99282.58;1721236;82;20158;-66
2021/09/24 05:46:35;;;;;;;17.23;8.45;;;;;;;8.74;76.69;99279.77;1716166;83;21686;-60
2021/09/24 05:49:02;;;;;;;14.45;8.38;;;;;;;8.76;76.95;99273.69;1707855;83;21061;-60
2021/09/24 05:51:30;;;;;;;13.15;7.97;;;;;;;8.76;77.09;99268.87;1700436;82;21483;-60
2021/09/24 05:53:57;;;;;;;16.48;7.95;;;;;;;8.73;77.27;99274.16;1699510;83;20999;-59
2021/09/24 05:56:24;;;;;;;11.10;7.37;;;;;;;8.73;77.46;99274.16;1705334;83;21096;-59
2021/09/24 05:58:51;;;;;;;11.03;7.10;;;;;;;8.73;77.57;99269.31;1693070;83;21191;-61
2021/09/24 06:01:18;;;;;;;17.30;7.70;;;;;;;8.72;77.62;99260.50;1667740;83;20989;-60
2021/09/24 06:03:46;;;;;;;10.78;7.28;;;;;;;8.76;77.78;99256.85;1705345;83;21038;-60
2021/09/24 06:06:13;;;;;;;13.43;7.25;;;;;;;8.82;77.85;99254.58;1702264;83;21036;-63
2021/09/24 06:08:40;;;;;;;14.95;8.05;;;;;;;8.85;77.74;99246.09;1700618;83;20990;-60
2021/09/24 06:11:06;;;;;;;15.85;8.45;;;;;;;8.86;77.79;99241.55;1706268;83;21141;-60
2021/09/24 06:13:34;;;;;;;14.10;8.03;;;;;;;8.87;77.95;99231.16;1653211;83;21530;-60
2021/09/24 06:16:01;;;;;;;12.60;7.62;;;;;;;8.89;77.87;99232.55;1694458;83;20994;-60
2021/09/24 06:18:30;;;;;;;11.18;8.18;;;;;;;8.90;77.89;99228.02;1692994;83;21101;-60
2021/09/24 06:20:58;;;;;;;15.03;7.87;;;;;;;8.89;77.97;99226.38;1689426;85;21544;-61
2021/09/24 06:23:25;;;;;;;14.78;7.83;;;;;;;8.92;78.17;99209.87;1689612;83;21766;-59
2021/09/24 06:25:53;;;;;;;13.93;8.25;;;;;;;8.92;78.14;99199.17;1689957;83;21037;-58
2021/09/24 06:28:20;;;;;;;15.90;7.72;;;;;;;8.89;78.22;99199.65;1694617;83;20930;-59
2021/09/24 06:30:47;;;;;;;14.58;7.55;;;;;;;8.81;78.26;99213.39;1689530;85;20998;-59
2021/09/24 06:33:15;;;;;;;16.52;7.45;;;;;;;8.75;78.54;99195.09;1689806;84;21562;-59
2021/09/24 06:35:42;;;;;;;11.45;7.58;;;;;;;8.74;78.75;99199.61;1683487;84;21205;-59
2021/09/24 06:38:09;;;;;;;18.07;8.28;;;;;;;8.75;78.97;99188.41;1689426;85;20926;-59
2021/09/24 06:40:38;;;;;;;13.20;7.50;;;;;;;8.75;79.06;99193.22;1660852;85;28278;-61
2021/09/24 06:43:06;;;;;;;13.70;7.90;;;;;;;8.79;79.21;99186.07;1683257;85;20957;-65
2021/09/24 06:45:33;;;;;;;13.88;7.60;;;;;;;8.84;79.17;99192.34;1689183;85;20994;-60
2021/09/24 06:48:02;;;;;;;11.75;7.70;;;;;;;8.91;79.14;99190.89;1683047;84;21152;-60
2021/09/24 06:50:32;;;;;;;12.70;7.65;;;;;;;8.94;78.99;99181.06;1709101;83;20859;-60
2021/09/24 06:52:59;;;;;;;9.83;7.08;;;;;;;8.92;78.96;99173.28;1715937;83;20955;-60
2021/09/24 06:55:26;;;;;;;12.23;6.95;;;;;;;8.92;79.07;99173.28;1694563;83;21544;-60
2021/09/24 06:57:54;;;;;;;11.88;7.65;;;;;;;8.96;79.25;99178.95;1716347;83;21006;-60
2021/09/24 07:00:21;;;;;;;13.80;8.73;;;;;;;8.99;79.18;99150.94;1713681;83;21136;-60
2021/09/24 07:02:49;;;;;;;11.53;7.83;;;;;;;8.99;78.91;99153.62;1695079;83;20991;-60
2021/09/24 07:05:16;;;;;;;11.05;6.72;;;;;;;8.96;78.91;99150.09;1720813;82;21097;-59
2021/09/24 07:07:44;;;;;;;10.93;7.45;;;;;;;8.94;78.97;99145.78;1716412;83;21093;-60
2021/09/24 07:10:12;;;;;;;11.43;8.08;;;;;;;8.94;79.13;99148.98;1715463;83;21003;-59
2021/09/24 07:12:41;;;;;;;;;;;;;;;8.99;79.29;99141.05;1719288;83;21425;-60
2021/09/24 07:15:09;;;;;;;13.78;7.55;;;;;;;9.06;79.22;99134.25;1714752;83;20109;-60
2021/09/24 07:17:37;;;;;;;14.53;8.08;;;;;;;9.14;79.19;99133.05;1708860;83;21524;-60
2021/09/24 07:20:06;;;;;;;12.03;8.40;;;;;;;9.20;79.09;99123.56;1713524;83;21548;-60
2021/09/24 07:22:33;;;;;;;12.15;7.72;;;;;;;9.21;78.87;99127.84;1716699;83;21564;-59
2021/09/24 07:25:00;;;;;;;12.58;7.37;;;;;;;9.21;78.82;99112.33;1686445;83;21796;-59
2021/09/24 07:27:28;;;;;;;12.33;7.65;;;;;;;9.20;78.86;99101.34;1716681;83;21010;-59
2021/09/24 07:29:55;;;;;;;12.65;7.00;;;;;;;9.17;78.86;99099.98;1716637;83;21137;-60
2021/09/24 07:32:23;;;;;;;10.85;7.85;;;;;;;9.13;79.05;99105.51;1716733;83;21030;-59
2021/09/24 07:34:49;;;;;;;10.53;6.90;;;;;;;9.17;79.15;99111.17;1716492;82;21575;-60
2021/09/24 07:37:16;;;;;;;13.50;7.53;;;;;;;9.22;79.10;99101.92;1719602;83;21135;-60
2021/09/24 07:39:43;;;;;;;10.50;7.62;;;;;;;9.25;79.07;99089.41;1716567;83;21037;-60
2021/09/24 07:42:10;;;;;;;10.50;7.45;;;;;;;9.26;79.06;99094.52;1717005;83;21002;-59
2021/09/24 07:44:37;;;;;;;9.25;7.10;;;;;;;9.26;78.94;99092.34;1725751;82;20958;-58
2021/09/24 07:47:04;;;;;;;13.20;7.40;;;;;;;9.28;78.94;99094.27;1703556;82;21073;-58
2021/09/24 07:49:32;;;;;;;10.10;7.10;;;;;;;9.30;79.05;99100.18;1730117;82;21061;-57
2021/09/24 07:51:59;;;;;;;10.38;7.42;;;;;;;9.32;79.05;99106.12;1727526;82;20986;-58
2021/09/24 07:54:27;;;;;;;13.33;6.97;;;;;;;9.35;79.00;99089.59;1721238;82;20982;-58
2021/09/24 07:56:54;;;;;;;12.05;7.10;;;;;;;9.38;79.03;99086.43;1700108;82;21694;-57
2021/09/24 07:59:22;;;;;;;10.68;7.10;;;;;;;9.35;79.03;99068.70;1725871;82;20974;-58
2021/09/24 08:01:49;;;;;;;12.35;7.30;;;;;;;9.33;78.97;99062.80;1699721;83;21125;-57
2021/09/24 08:04:16;;;;;;;9.63;6.90;;;;;;;9.31;79.21;99058.22;1724733;82;20974;-58
2021/09/24 08:06:45;;;;;;;10.15;7.10;;;;;;;9.27;79.15;99051.19;1725152;82;20962;-57
2021/09/24 08:09:13;;;;;;;10.70;6.97;;;;;;;9.22;79.26;99050.58;1721341;82;20930;-57
2021/09/24 08:11:40;;;;;;;10.40;6.93;;;;;;;9.23;79.38;99050.05;1728514;82;20987;-58
2021/09/24 08:14:07;;;;;;;12.33;7.33;;;;;;;9.25;79.52;99045.28;1701305;83;21085;-57
2021/09/24 08:16:34;;;;;;;11.00;7.20;;;;;;;9.27;79.58;99044.50;1727819;82;21086;-57
2021/09/24 08:19:03;;;;;;;13.30;7.15;;;;;;;9.28;79.52;99035.44;1721808;82;26651;-58
2021/09/24 08:21:30;;;;;;;10.75;7.40;;;;;;;9.25;79.64;99026.56;1688887;83;20962;-58
2021/09/24 08:23:57;;;;;;;11.35;7.35;;;;;;;9.22;79.65;99023.05;1720773;82;21026;-57
2021/09/24 08:26:26;;;;;;;11.57;7.42;;;;;;;9.18;79.84;99019.22;1716844;83;20963;-57
2021/09/24 08:28:54;;;;;;;9.98;7.30;;;;;;;9.12;80.07;99018.32;1716652;83;21040;-57
2021/09/24 08:31:22;;;;;;;10.82;6.85;;;;;;;9.09;80.26;99012.92;1717085;83;20871;-58
2021/09/24 08:33:49;;;;;;;11.05;7.65;;;;;;;9.09;80.40;99004.91;1716595;82;20958;-58
2021/09/24 08:36:18;;;;;;;12.50;7.47;;;;;;;9.11;80.53;99007.33;1714245;82;20899;-57
2021/09/24 08:38:45;;;;;;;9.78;7.55;;;;;;;9.10;80.57;98999.05;1716033;83;21761;-58
2021/09/24 08:41:12;;;;;;;10.85;7.00;;;;;;;9.08;80.70;98995.79;1716279;83;21007;-58
2021/09/24 08:43:40;;;;;;;17.12;7.37;;;;;;;9.10;80.82;98997.17;1716429;83;21070;-58
2021/09/24 08:46:08;;;;;;;11.35;7.97;;;;;;;9.15;80.91;98993.77;1716394;83;21001;-58
2021/09/24 08:48:35;;;;;;;13.98;7.97;;;;;;;9.18;80.88;98995.16;1716279;83;20993;-57
2021/09/24 08:51:02;;;;;;;10.38;7.75;;;;;;;9.22;80.87;98993.63;1692116;84;21110;-57
2021/09/24 08:53:32;;;;;;;14.15;7.65;;;;;;;9.25;80.90;98992.60;1714315;82;20895;-58
2021/09/24 08:55:58;;;;;;;10.25;6.50;;;;;;;9.30;80.84;98987.86;1684126;83;21038;-57
2021/09/24 08:58:25;;;;;;;13.03;7.35;;;;;;;9.35;80.74;98985.78;1716440;83;21083;-57
2021/09/24 09:00:52;;;;;;;10.85;7.50;;;;;;;9.40;80.71;98990.69;1721209;82;21074;-57
2021/09/24 09:03:19;;;;;;;11.80;7.00;;;;;;;9.43;80.50;98983.52;1723106;82;21040;-58
2021/09/24 09:05:56;;;;;;;10.72;7.25;;;;;;;9.45;80.41;98984.61;1709342;83;21014;-58
2021/09/24 09:08:33;;;;;;;14.33;7.10;;;;;;;9.46;80.27;98979.55;1722094;82;21013;-57
2021/09/24 09:11:07;;;;;;;;;;;;;;;9.49;80.26;98978.26;1722604;82;20942;-58
2021/09/24 09:13:42;;;;;;;12.03;7.47;;;;;;;9.47;80.17;98979.30;1724876;82;20082;-59
2021/09/24 09:16:15;;;;;;;11.63;7.95;;;;;;;9.50;80.18;98967.84;1717648;82;21442;-57
2021/09/24 09:18:46;;;;;;;14.15;7.62;;;;;;;9.52;80.20;98963.05;1714510;82;21006;-59
2021/09/24 09:21:16;;;;;;;10.20;6.62;;;;;;;9.53;80.15;98969.49;1719127;82;21065;-58
2021/09/24 09:23:48;;;;;;;11.05;7.83;;;;;;;9.55;80.14;98948.64;1721057;82;21053;-57
2021/09/24 09:26:14;;;;;;;11.57;7.40;;;;;;;9.56;80.02;98950.81;1719326;82;20994;-58
2021/09/24 09:28:59;;;;;;;11.48;8.08;;;;;;;9.56;80.00;98944.92;1678019;82;21095;-58
2021/09/24 09:31:29;;;;;;;9.55;6.67;;;;;;;9.57;79.99;98953.75;1728088;82;21525;-57
2021/09/24 09:33:59;;;;;;;12.10;7.45;;;;;;;9.59;80.04;98961.02;1721541;82;21014;-58
2021/09/24 09:36:30;;;;;;;12.05;7.42;;;;;;;9.60;79.91;98959.44;1722298;82;21055;-58
2021/09/24 09:38:58;;;;;;;11.55;7.05;;;;;;;9.60;79.92;98940.70;1720488;82;21564;-58
2021/09/24 09:41:26;;;;;;;10.63;6.60;;;;;;;9.63;79.96;98943.42;1681415;83;21178;-57
2021/09/24 09:44:00;;;;;;;9.38;7.28;;;;;;;9.62;79.92;98958.65;1716896;83;20991;-58
2021/09/24 09:46:31;;;;;;;10.90;7.97;;;;;;;9.62;79.96;98953.84;1695306;83;21049;-57
2021/09/24 09:49:10;;;;;;;12.03;7.65;;;;;;;9.62;80.00;98952.50;1716212;83;21465;-58
2021/09/24 09:51:41;;;;;;;12.28;7.50;;;;;;;9.62;79.93;98947.95;1714755;83;21599;-58
2021/09/24 09:54:11;;;;;;;12.43;8.20;;;;;;;9.61;79.92;98958.39;1716138;82;21957;-57
2021/09/24 09:56:41;;;;;;;15.23;7.25;;;;;;;9.61;79.90;98961.06;1693137;83;21537;-57
2021/09/24 09:59:29;;;;;;;9.60;7.53;;;;;;;9.60;80.00;98950.07;1717011;83;20943;-57
2021/09/24 10:02:24;;;;;;;10.68;7.78;;;;;;;9.61;80.12;98945.02;1721930;82;20959;-57
2021/09/24 10:04:53;;;;;;;10.85;7.50;;;;;;;9.61;80.18;98951.70;1717417;82;20919;-59
2021/09/24 10:07:27;;;;;;;12.00;7.75;;;;;;;9.61;80.25;98941.00;1719806;82;21184;-61
2021/09/24 10:10:10;;;;;;;11.20;6.97;;;;;;;9.62;80.31;98939.92;1716913;83;20959;-59
2021/09/24 10:12:38;;;;;;;9.40;6.55;;;;;;;9.66;80.36;98933.56;1724482;82;21002;-58
2021/09/24 10:15:08;;;;;;;12.18;7.47;;;;;;;9.65;80.38;98934.07;1729941;82;20958;-58
2021/09/24 10:17:35;;;;;;;7.60;6.10;;;;;;;9.65;80.38;98942.09;1730971;82;20955;-57
2021/09/24 10:20:05;;;;;;;10.15;6.70;;;;;;;9.68;80.40;98938.67;1739681;82;21128;-57
2021/09/24 10:22:33;;;;;;;6.97;5.53;;;;;;;9.70;80.36;98937.38;1716361;83;21025;-58
2021/09/24 10:25:00;;;;;;;10.32;7.47;;;;;;;9.69;80.22;98934.41;1724745;82;21580;-59
2021/09/24 10:27:33;;;;;;;9.10;5.83;;;;;;;9.68;80.28;98931.98;1726822;82;20982;-58
2021/09/24 10:30:08;;;;;;;7.50;5.20;;;;;;;9.65;80.31;98928.72;1720526;82;20887;-58
2021/09/24 10:32:35;;;;;;;7.70;5.95;;;;;;;9.64;80.47;98916.92;1722970;82;21728;-57
2021/09/24 10:35:10;;;;;;;9.53;5.92;;;;;;;9.63;80.57;98928.17;1731494;80;21442;-57
2021/09/24 10:37:40;;;;;;;9.73;6.33;;;;;;;9.65;80.62;98914.55;1727943;82;20943;-57
2021/09/24 10:40:26;;;;;;;7.12;5.40;;;;;;;9.67;80.62;98923.66;1725682;82;21022;-59
2021/09/24 10:43:01;;;;;;;7.00;5.20;;;;;;;9.68;80.65;98908.69;1696075;82;20978;-57
2021/09/24 10:45:35;;;;;;;7.15;5.40;;;;;;;9.68;80.55;98926.09;1731412;82;21120;-60
2021/09/24 10:48:27;;;;;;;8.08;5.70;;;;;;;9.68;80.65;98919.40;1716592;83;21022;-58
2021/09/24 10:51:06;;;;;;;7.80;4.72;;;;;;;9.69;80.60;98920.20;1712596;83;21093;-57
2021/09/24 10:53:47;;;;;;;7.20;4.92;;;;;;;9.70;80.63;98913.80;1716368;83;21054;-59
2021/09/24 10:56:19;;;;;;;6.35;4.75;;;;;;;9.71;80.61;98918.09;1709103;83;21006;-58
2021/09/24 10:58:47;;;;;;;6.83;5.00;;;;;;;9.73;80.69;98926.17;1716237;83;21141;-57
2021/09/24 11:01:33;;;;;;;6.87;5.22;;;;;;;9.76;80.54;98923.00;1715969;83;21018;-57
2021/09/24 11:04:11;;;;;;;9.55;5.03;;;;;;;9.80;80.58;98925.47;1714691;82;21089;-58
2021/09/24 11:06:47;;;;;;;6.03;5.05;;;;;;;9.85;80.66;98915.34;1714481;83;20998;-57
2021/09/24 11:09:16;;;;;;;6.87;4.75;;;;;;;9.92;80.62;98913.30;1716207;83;21599;-58
2021/09/24 11:11:47;;;;;;;6.87;4.62;;;;;;;9.94;80.48;98902.34;1717138;83;22411;-57
2021/09/24 11:14:36;;;;;;;8.25;4.97;;;;;;;9.93;80.51;98897.49;1716452;83;21553;-57
2021/09/24 11:17:07;;;;;;;6.97;5.37;;;;;;;9.96;80.70;98886.83;1696874;83;21528;-60
2021/09/24 11:19:45;;;;;;;6.85;4.83;;;;;;;10.00;80.68;98895.44;1716052;83;21026;-60
2021/09/24 11:22:21;;;;;;;6.30;4.80;;;;;;;10.05;80.69;98894.69;1716880;83;20931;-60
2021/09/24 11:25:01;;;;;;;5.87;4.78;;;;;;;10.09;80.69;98898.48;1716652;82;20868;-60
2021/09/24 11:27:42;;;;;;;6.60;4.83;;;;;;;10.15;80.68;98891.33;1713899;83;21484;-60
2021/09/24 11:30:12;;;;;;;11.20;5.17;;;;;;;10.17;80.57;98895.89;1716682;83;20990;-59
2021/09/24 11:32:47;;;;;;;11.40;5.65;;;;;;;10.19;80.44;98895.13;1690582;83;21058;-60
2021/09/24 11:35:40;;;;;;;8.65;5.87;;;;;;;10.21;80.41;98901.56;1719103;82;20997;-61
2021/09/24 11:38:20;;;;;;;16.25;7.03;;;;;;;10.23;80.37;98888.72;1713406;83;21878;-61
2021/09/24 11:40:53;;;;;;;7.42;5.90;;;;;;;10.24;80.40;98891.69;1715629;83;21011;-59
2021/09/24 11:43:36;;;;;;;9.38;6.42;;;;;;;10.25;80.43;98883.40;1712783;83;21533;-60
2021/09/24 11:46:18;;;;;;;8.80;5.78;;;;;;;10.28;80.60;98868.70;1715133;83;20955;-62